Terminal Aerodrome Forecast
Issued by NWS

Home | Current Version | Previous Version | Graphics & Text | Print | Product List | Glossary On
Versions: 1 2 3 4 5 6 7 8 9 10 11 12 13 14 15
990
FTUS45 KGGW 191127
TAFSDY
TAF
KSDY 191127Z 1912/2012 VRB04KT P6SM VCTS BKN100CB
     FM191700 10006KT P6SM SCT050
     FM192200 36005KT P6SM FEW180=

USA.gov is the U.S. government's official web portal to all federal, state and local government web resources and services.